Time;durP1;ratioP1;P1;durP2;ratioP2;P2;SDS_P1;SDS_P2;PMS_P1;PMS_P2;Temp;Humidity;BMP_temperature;BMP_pressure;BME280_temperature;BME280_humidity;BME280_pressure;Samples;Min_cycle;Max_cycle;Signal;HPM_P1;HPM_P2
2022/03/17 00:00:19;;;;;;;;;;;;;;;6.18;78.99;100532.91;5107345;28;19916;-90
2022/03/17 00:02:45;;;;;;;;;;;;;;;6.17;78.51;100541.63;5105163;27;19927;-91
2022/03/17 00:05:11;;;;;;;;;;;;;;;6.21;77.96;100543.44;5094471;28;19928;-89
2022/03/17 00:07:38;;;;;;;;;;;;;;;6.12;78.22;100543.28;5090237;28;19955;-90
2022/03/17 00:10:11;;;;;;;;;;;;;;;6.22;77.95;100542.56;5109276;28;19986;-92
2022/03/17 00:12:38;;;;;;;;;;;;;;;6.20;77.74;100544.28;5086443;28;19924;-91
2022/03/17 00:15:04;;;;;;;;;;;;;;;6.16;77.94;100546.84;5101759;28;19923;-91
2022/03/17 00:17:30;;;;;;;;;;;;;;;6.18;78.03;100538.16;5108081;28;19920;-91
2022/03/17 00:19:55;;;;;;;;;;;;;;;5.99;78.63;100536.94;5100718;28;19931;-92
2022/03/17 00:22:21;;;;;;;;;;;;;;;6.16;78.13;100534.59;5094971;28;19936;-94
2022/03/17 00:24:47;;;;;;;;;;;;;;;5.87;79.13;100532.38;5089128;28;19928;-94
2022/03/17 00:27:12;;;;;;;;;;;;;;;5.74;80.35;100541.72;5100060;28;20014;-93
2022/03/17 00:29:38;;;;;;;;;;;;;;;5.65;80.75;100540.69;5091985;28;19977;-89
2022/03/17 00:32:04;;;;;;;;;;;;;;;5.66;80.58;100542.44;5093583;28;20728;-92
2022/03/17 00:34:29;;;;;;;;;;;;;;;5.56;81.01;100547.50;5078918;28;19920;-91
2022/03/17 00:36:54;;;;;;;;;;;;;;;5.64;80.99;100544.13;5087950;28;20378;-91
2022/03/17 00:39:21;;;;;;;;;;;;;;;5.63;80.63;100545.00;5088381;28;19920;-91
2022/03/17 00:41:46;;;;;;;;;;;;;;;5.60;80.86;100552.81;5103245;28;19958;-89
2022/03/17 00:44:12;;;;;;;;;;;;;;;5.79;80.39;100552.28;5103888;28;19966;-92
2022/03/17 00:46:37;;;;;;;;;;;;;;;5.67;80.84;100552.94;5100424;28;19916;-92
2022/03/17 00:49:03;;;;;;;;;;;;;;;5.76;80.55;100553.97;5107352;28;19926;-91
2022/03/17 00:51:28;;;;;;;;;;;;;;;5.79;80.39;100554.03;5106714;28;19920;-92
2022/03/17 00:53:53;;;;;;;;;;;;;;;5.63;81.66;100556.34;5087983;28;19985;-94
2022/03/17 00:56:19;;;;;;;;;;;;;;;5.84;81.18;100555.88;5087463;28;20289;-94
2022/03/17 00:58:45;;;;;;;;;;;;;;;5.84;80.88;100553.25;5086764;28;19916;-95
2022/03/17 01:01:12;;;;;;;;;;;;;;;5.75;81.86;100563.56;5090937;28;19931;-94
2022/03/17 01:03:37;;;;;;;;;;;;;;;5.66;82.19;100564.25;5091491;28;19920;-93
2022/03/17 01:06:02;;;;;;;;;;;;;;;5.68;82.49;100567.78;5098423;28;19923;-94
2022/03/17 01:08:28;;;;;;;;;;;;;;;5.57;82.99;100570.19;5106472;28;19966;-92
2022/03/17 01:10:54;;;;;;;;;;;;;;;5.74;82.71;100575.75;5092444;28;19991;-94
2022/03/17 01:13:19;;;;;;;;;;;;;;;5.56;83.04;100573.69;5095708;28;20464;-90
2022/03/17 01:15:45;;;;;;;;;;;;;;;5.45;84.33;100580.41;5088120;28;19920;-93
2022/03/17 01:18:10;;;;;;;;;;;;;;;5.38;84.89;100591.63;5107232;28;19924;-96
2022/03/17 01:20:35;;;;;;;;;;;;;;;5.53;84.56;100593.66;5107547;28;20401;-94
2022/03/17 01:23:04;;;;;;;;;;;;;;;5.22;85.96;100589.53;5096549;28;19924;-95
2022/03/17 01:25:29;;;;;;;;;;;;;;;5.28;86.54;100592.28;5097012;28;20424;-92
2022/03/17 01:27:57;;;;;;;;;;;;;;;5.31;86.84;100594.97;5086124;28;19924;-94
2022/03/17 01:30:22;;;;;;;;;;;;;;;5.27;86.90;100601.88;5087082;28;19980;-90
2022/03/17 01:32:48;;;;;;;;;;;;;;;5.29;87.53;100600.16;5086775;28;19924;-88
2022/03/17 01:35:13;;;;;;;;;;;;;;;5.28;87.90;100601.00;5086738;28;19920;-90
2022/03/17 01:37:38;;;;;;;;;;;;;;;5.33;88.05;100603.72;5102285;28;20019;-93
2022/03/17 01:40:04;;;;;;;;;;;;;;;5.32;88.18;100600.22;5099558;28;19927;-90
2022/03/17 01:42:29;;;;;;;;;;;;;;;5.37;88.68;100601.19;5086731;28;19920;-92
2022/03/17 01:44:55;;;;;;;;;;;;;;;5.42;87.75;100606.53;5105005;28;19946;-92
2022/03/17 01:47:26;;;;;;;;;;;;;;;5.31;88.62;100611.53;5107417;28;19924;-91
2022/03/17 01:49:57;;;;;;;;;;;;;;;5.37;88.75;100610.78;5109486;28;19916;-92
2022/03/17 01:52:23;;;;;;;;;;;;;;;5.41;88.22;100606.50;5094035;28;19927;-91
2022/03/17 01:54:49;;;;;;;;;;;;;;;5.34;89.00;100608.13;5104419;28;19920;-90
2022/03/17 01:57:15;;;;;;;;;;;;;;;5.25;89.72;100616.66;5106478;28;20540;-94
2022/03/17 01:59:41;;;;;;;;;;;;;;;5.50;88.58;100619.78;5107171;28;19920;-93
2022/03/17 02:02:06;;;;;;;;;;;;;;;5.45;88.78;100614.44;5097943;28;20312;-95
2022/03/17 02:04:33;;;;;;;;;;;;;;;5.28;89.74;100615.84;5101614;28;19924;-94
2022/03/17 02:06:58;;;;;;;;;;;;;;;5.45;89.24;100610.94;5097430;28;19981;-90
2022/03/17 02:09:26;;;;;;;;;;;;;;;5.61;88.23;100618.28;5086572;28;19912;-92
2022/03/17 02:15:10;;;;;;;;;;;;;;;5.76;86.98;100622.03;5094857;28;19931;-94
2022/03/17 02:17:39;;;;;;;;;;;;;;;5.88;86.29;100633.63;5030232;28;19921;-93
2022/03/17 02:20:06;;;;;;;;;;;;;;;5.77;86.19;100640.41;5037389;28;20576;-93
2022/03/17 02:22:31;;;;;;;;;;;;;;;5.63;86.36;100639.25;5104318;28;20642;-91
2022/03/17 02:27:45;;;;;;;;;;;;;;;5.41;88.31;100636.19;5091478;28;20703;-92
2022/03/17 02:30:11;;;;;;;;;;;;;;;5.41;88.47;100635.28;5088845;28;19920;-89
2022/03/17 02:32:37;;;;;;;;;;;;;;;5.40;88.62;100634.41;5103358;28;19945;-89
2022/03/17 02:35:07;;;;;;;;;;;;;;;5.40;88.73;100626.56;5108033;28;19923;-90
2022/03/17 02:37:32;;;;;;;;;;;;;;;5.39;88.86;100632.63;5108386;28;19923;-90
2022/03/17 02:39:58;;;;;;;;;;;;;;;5.46;89.10;100628.44;5104004;28;19920;-89
2022/03/17 02:42:24;;;;;;;;;;;;;;;5.46;88.74;100639.78;5096550;28;19927;-89
2022/03/17 02:44:50;;;;;;;;;;;;;;;5.61;88.41;100643.53;5100709;28;19924;-89
2022/03/17 02:47:15;;;;;;;;;;;;;;;5.68;87.21;100653.31;5108452;28;20757;-91
2022/03/17 02:49:40;;;;;;;;;;;;;;;5.71;87.21;100653.34;5109486;28;19923;-91
2022/03/17 02:52:07;;;;;;;;;;;;;;;5.85;86.78;100659.75;5109035;28;19973;-91
2022/03/17 02:54:33;;;;;;;;;;;;;;;5.77;86.97;100669.19;5100789;28;19948;-89
2022/03/17 02:56:58;;;;;;;;;;;;;;;5.85;86.78;100683.31;5089187;28;20607;-90
2022/03/17 02:59:23;;;;;;;;;;;;;;;5.88;86.82;100680.75;5091358;28;20398;-88
2022/03/17 03:01:50;;;;;;;;;;;;;;;6.06;85.74;100688.13;5109407;28;20385;-92
2022/03/17 03:04:16;;;;;;;;;;;;;;;6.02;85.74;100688.91;5103446;28;19927;-91
2022/03/17 03:06:42;;;;;;;;;;;;;;;5.97;85.70;100693.19;5088574;28;19935;-91
2022/03/17 03:09:07;;;;;;;;;;;;;;;6.06;85.63;100688.13;5089029;28;19924;-93
2022/03/17 03:11:33;;;;;;;;;;;;;;;6.33;84.61;100683.38;5089275;28;20409;-91
2022/03/17 03:13:58;;;;;;;;;;;;;;;6.40;83.56;100678.28;5097303;28;20320;-93
2022/03/17 03:16:23;;;;;;;;;;;;;;;6.50;83.11;100674.06;5093541;28;19952;-94
2022/03/17 03:18:49;;;;;;;;;;;;;;;6.22;83.80;100683.19;5102192;28;20424;-93
2022/03/17 03:21:14;;;;;;;;;;;;;;;6.08;84.52;100691.66;5098770;28;20466;-94
2022/03/17 03:23:39;;;;;;;;;;;;;;;6.20;84.95;100685.78;5089060;28;19916;-92
2022/03/17 03:26:05;;;;;;;;;;;;;;;6.39;84.11;100683.50;5086640;28;19926;-90
2022/03/17 03:28:30;;;;;;;;;;;;;;;6.44;83.13;100690.59;5097633;28;19978;-92
2022/03/17 03:30:55;;;;;;;;;;;;;;;6.65;82.32;100678.69;5102402;28;19922;-92
2022/03/17 03:33:21;;;;;;;;;;;;;;;6.42;83.17;100694.03;5088942;28;20376;-92
2022/03/17 03:38:30;;;;;;;;;;;;;;;6.46;82.83;100701.09;5098750;28;20416;-92
2022/03/17 03:40:56;;;;;;;;;;;;;;;6.51;82.67;100709.03;5104597;28;19920;-91
2022/03/17 03:43:21;;;;;;;;;;;;;;;6.63;82.26;100704.03;5087923;28;19930;-94
2022/03/17 03:45:47;;;;;;;;;;;;;;;6.66;81.98;100706.69;5088672;28;20006;-91
2022/03/17 03:48:12;;;;;;;;;;;;;;;6.73;81.58;100718.16;5095222;28;20030;-94
2022/03/17 03:50:37;;;;;;;;;;;;;;;6.74;80.99;100718.19;5107774;28;19930;-93
2022/03/17 03:53:03;;;;;;;;;;;;;;;6.64;81.54;100713.63;5109926;28;19926;-95
2022/03/17 03:55:31;;;;;;;;;;;;;;;6.70;81.05;100718.09;5114853;28;19926;-95
2022/03/17 03:57:59;;;;;;;;;;;;;;;6.93;80.42;100721.13;5121277;28;19923;-92
2022/03/17 04:02:57;;;;;;;;;;;;;;;6.71;80.89;100728.63;5093534;28;19927;-91
2022/03/17 04:05:34;;;;;;;;;;;;;;;6.73;80.43;100736.50;5090925;28;19927;-96
2022/03/17 04:08:04;;;;;;;;;;;;;;;6.78;80.23;100740.09;5091826;28;19948;-96
2022/03/17 04:10:30;;;;;;;;;;;;;;;6.86;79.51;100743.75;5106138;28;19959;-94
2022/03/17 04:12:55;;;;;;;;;;;;;;;6.76;79.77;100744.44;5109607;28;19948;-92
2022/03/17 04:15:21;;;;;;;;;;;;;;;6.80;79.37;100746.25;5108209;28;20816;-88
2022/03/17 04:17:46;;;;;;;;;;;;;;;6.79;79.13;100747.97;5107850;28;19919;-89
2022/03/17 04:20:11;;;;;;;;;;;;;;;6.79;78.53;100753.22;5095119;28;20007;-93
2022/03/17 04:22:37;;;;;;;;;;;;;;;6.72;78.57;100755.72;5087744;28;20042;-90
2022/03/17 04:25:04;;;;;;;;;;;;;;;6.59;79.11;100758.13;5087474;28;20003;-91
2022/03/17 04:27:29;;;;;;;;;;;;;;;6.69;78.44;100761.81;5095903;28;19930;-89
2022/03/17 04:29:55;;;;;;;;;;;;;;;6.83;77.75;100764.69;5095407;28;19924;-89
2022/03/17 04:32:20;;;;;;;;;;;;;;;6.83;77.38;100767.28;5087422;28;19927;-90
2022/03/17 04:34:45;;;;;;;;;;;;;;;6.66;77.85;100768.72;5103630;28;19924;-88
2022/03/17 04:37:11;;;;;;;;;;;;;;;6.43;78.78;100775.31;5092593;28;19983;-88
2022/03/17 04:39:36;;;;;;;;;;;;;;;6.57;77.91;100785.19;5096412;28;19919;-88
2022/03/17 04:42:01;;;;;;;;;;;;;;;6.63;77.43;100780.94;5099849;28;19920;-89
2022/03/17 04:44:27;;;;;;;;;;;;;;;6.42;78.28;100785.75;5086770;28;19920;-94
2022/03/17 04:46:52;;;;;;;;;;;;;;;6.46;78.13;100790.22;5092384;28;19930;-88
2022/03/17 04:49:17;;;;;;;;;;;;;;;6.47;78.21;100789.34;5109102;28;19916;-91
2022/03/17 04:51:43;;;;;;;;;;;;;;;6.39;78.62;100799.69;5093627;28;19924;-88
2022/03/17 04:54:08;;;;;;;;;;;;;;;6.52;78.32;100795.59;5087012;28;19920;-93
2022/03/17 04:56:33;;;;;;;;;;;;;;;6.39;78.63;100799.69;5086320;28;19974;-89
2022/03/17 04:58:59;;;;;;;;;;;;;;;6.39;78.99;100810.16;5103104;28;19920;-90
2022/03/17 05:01:24;;;;;;;;;;;;;;;6.52;78.55;100811.31;5099407;28;19928;-90
2022/03/17 05:03:50;;;;;;;;;;;;;;;6.61;78.31;100821.97;5085792;28;20677;-89
2022/03/17 05:06:16;;;;;;;;;;;;;;;6.72;77.71;100810.78;5085085;28;20014;-88
2022/03/17 05:08:41;;;;;;;;;;;;;;;6.65;77.84;100817.66;5084406;28;19948;-90
2022/03/17 05:11:09;;;;;;;;;;;;;;;6.78;77.13;100819.66;5094416;28;20004;-91
2022/03/17 05:13:34;;;;;;;;;;;;;;;6.77;77.41;100822.25;5099665;28;19992;-88
2022/03/17 05:16:00;;;;;;;;;;;;;;;6.80;77.63;100828.44;5101406;28;20390;-90
2022/03/17 05:18:25;;;;;;;;;;;;;;;6.78;77.75;100824.91;5086843;28;19919;-94
2022/03/17 05:20:52;;;;;;;;;;;;;;;6.57;78.65;100828.00;5083802;28;19928;-91
2022/03/17 05:23:18;;;;;;;;;;;;;;;6.51;79.71;100827.88;5093606;28;19920;-90
2022/03/17 05:25:45;;;;;;;;;;;;;;;6.48;79.79;100834.81;5104229;28;19920;-91
2022/03/17 05:28:10;;;;;;;;;;;;;;;6.18;81.33;100846.41;5085464;28;20008;-96
2022/03/17 05:30:39;;;;;;;;;;;;;;;6.26;81.30;100850.09;5087864;28;20015;-89
2022/03/17 05:33:06;;;;;;;;;;;;;;;6.46;80.38;100842.66;5105865;28;20372;-87
2022/03/17 05:35:31;;;;;;;;;;;;;;;6.50;79.73;100848.81;5107275;28;20765;-93
2022/03/17 05:37:57;;;;;;;;;;;;;;;6.26;81.04;100843.13;5108236;28;19963;-91
2022/03/17 05:40:23;;;;;;;;;;;;;;;6.15;81.55;100848.97;5095859;28;20042;-91
2022/03/17 05:42:59;;;;;;;;;;;;;;;5.99;82.65;100848.63;5104968;28;20011;-91
2022/03/17 05:45:26;;;;;;;;;;;;;;;6.13;82.73;100859.41;5089202;28;19927;-92
2022/03/17 05:47:52;;;;;;;;;;;;;;;6.15;82.49;100855.13;5089933;28;20016;-91
2022/03/17 05:50:20;;;;;;;;;;;;;;;5.82;83.56;100861.31;5092868;28;19924;-93
2022/03/17 05:52:47;;;;;;;;;;;;;;;5.77;83.93;100862.06;5100604;28;19924;-91
2022/03/17 05:55:13;;;;;;;;;;;;;;;5.79;84.31;100863.00;5102804;28;19927;-91
2022/03/17 05:57:41;;;;;;;;;;;;;;;5.80;84.05;100865.66;5108082;28;19919;-93
2022/03/17 06:00:07;;;;;;;;;;;;;;;5.99;83.57;100873.94;5088264;28;20487;-93
2022/03/17 06:02:36;;;;;;;;;;;;;;;6.00;83.16;100879.22;5089300;28;19923;-91
2022/03/17 06:05:06;;;;;;;;;;;;;;;6.17;82.35;100878.72;5103789;28;20438;-92
2022/03/17 06:07:35;;;;;;;;;;;;;;;6.13;82.29;100889.97;5103303;28;19928;-93
2022/03/17 06:10:00;;;;;;;;;;;;;;;6.15;81.72;100891.78;5090238;28;20018;-88
2022/03/17 06:12:25;;;;;;;;;;;;;;;6.29;81.29;100894.72;5122497;27;20045;-90
2022/03/17 06:14:51;;;;;;;;;;;;;;;6.17;79.88;100905.81;5099132;28;19946;-91
2022/03/17 06:17:17;;;;;;;;;;;;;;;6.30;79.64;100913.94;5089848;28;19920;-91
2022/03/17 06:19:44;;;;;;;;;;;;;;;6.11;80.02;100920.50;5090538;28;20023;-92
2022/03/17 06:22:09;;;;;;;;;;;;;;;6.05;78.92;100931.72;5090699;28;19939;-88
2022/03/17 06:24:35;;;;;;;;;;;;;;;6.17;78.88;100929.38;5101635;28;20408;-91
2022/03/17 06:27:00;;;;;;;;;;;;;;;6.19;78.67;100932.03;5105087;28;19985;-90
2022/03/17 06:29:25;;;;;;;;;;;;;;;6.32;77.90;100930.56;5088230;28;19946;-93
2022/03/17 06:31:51;;;;;;;;;;;;;;;6.30;78.51;100937.53;5089024;28;20336;-91
2022/03/17 06:34:16;;;;;;;;;;;;;;;6.12;79.80;100948.47;5090479;28;19977;-89
2022/03/17 06:36:41;;;;;;;;;;;;;;;6.11;80.86;100949.31;5090024;28;20021;-91
2022/03/17 06:39:07;;;;;;;;;;;;;;;6.32;80.78;100951.53;5096349;28;19924;-91
2022/03/17 06:41:32;;;;;;;;;;;;;;;6.32;80.71;100959.41;5089184;28;20713;-89
2022/03/17 06:43:57;;;;;;;;;;;;;;;6.05;77.66;100961.41;5088927;28;19973;-93
2022/03/17 06:46:23;;;;;;;;;;;;;;;6.01;77.23;100966.53;5088883;28;19962;-92
2022/03/17 06:48:48;;;;;;;;;;;;;;;5.99;76.12;100966.50;5090556;28;19924;-91
2022/03/17 06:51:13;;;;;;;;;;;;;;;6.02;76.80;100976.19;5104353;28;19924;-91
2022/03/17 06:53:39;;;;;;;;;;;;;;;6.29;76.42;100983.81;5090713;28;19981;-93
2022/03/17 06:56:04;;;;;;;;;;;;;;;6.37;75.88;100986.63;5088991;28;19927;-91
2022/03/17 06:58:30;;;;;;;;;;;;;;;6.37;76.28;100992.72;5099019;28;19924;-92
2022/03/17 07:00:56;;;;;;;;;;;;;;;6.32;75.71;100994.38;5109887;28;19915;-91
2022/03/17 07:03:21;;;;;;;;;;;;;;;6.18;75.94;100998.38;5105738;28;19924;-89
2022/03/17 07:05:46;;;;;;;;;;;;;;;6.29;76.25;100991.69;5109599;28;19920;-92
2022/03/17 07:08:12;;;;;;;;;;;;;;;6.27;76.56;100999.50;5102669;28;19931;-89
2022/03/17 07:10:38;;;;;;;;;;;;;;;6.44;76.75;101004.22;5088595;28;19923;-93
2022/03/17 07:13:03;;;;;;;;;;;;;;;6.44;77.25;101004.22;5101720;28;20297;-92
2022/03/17 07:15:29;;;;;;;;;;;;;;;6.35;76.42;101004.03;5101081;28;19924;-89
2022/03/17 07:17:54;;;;;;;;;;;;;;;6.50;75.95;101011.34;5087891;28;19924;-92
2022/03/17 07:20:19;;;;;;;;;;;;;;;6.43;74.97;101015.59;5088666;28;19928;-92
2022/03/17 07:22:50;;;;;;;;;;;;;;;6.52;76.16;101009.66;5071794;28;20050;-91
2022/03/17 07:25:17;;;;;;;;;;;;;;;6.45;74.26;101014.75;5087076;28;20309;-92
2022/03/17 07:27:44;;;;;;;;;;;;;;;6.46;72.76;101023.53;5088992;28;20453;-92
2022/03/17 07:30:11;;;;;;;;;;;;;;;6.66;74.13;101012.56;5087920;28;19965;-93
2022/03/17 07:32:36;;;;;;;;;;;;;;;6.54;74.74;101024.56;5088410;28;19920;-91
2022/03/17 07:35:01;;;;;;;;;;;;;;;6.74;74.73;101024.16;5088881;28;19931;-93
2022/03/17 07:37:27;;;;;;;;;;;;;;;7.03;74.89;101021.22;5088552;28;19920;-92
2022/03/17 07:39:53;;;;;;;;;;;;;;;6.82;73.49;101027.81;5087735;28;19924;-92
2022/03/17 07:42:19;;;;;;;;;;;;;;;6.84;73.31;101026.09;5072099;28;20024;-92
2022/03/17 07:44:44;;;;;;;;;;;;;;;7.07;73.61;101031.81;5088610;28;19967;-92
2022/03/17 07:47:09;;;;;;;;;;;;;;;7.23;72.22;101042.63;5089569;28;19931;-91
2022/03/17 07:49:38;;;;;;;;;;;;;;;7.51;71.38;101033.56;5088142;28;19927;-91
2022/03/17 07:52:04;;;;;;;;;;;;;;;7.48;71.23;101044.03;5087783;28;19928;-93
2022/03/17 07:54:29;;;;;;;;;;;;;;;7.25;70.10;101047.06;5089615;28;19920;-93
2022/03/17 07:56:55;;;;;;;;;;;;;;;7.08;70.79;101044.09;5089255;28;20010;-93
2022/03/17 07:59:21;;;;;;;;;;;;;;;7.13;70.69;101050.31;5088074;28;19920;-93
2022/03/17 08:01:46;;;;;;;;;;;;;;;7.11;70.75;101052.03;5088375;28;19924;-93
2022/03/17 08:04:12;;;;;;;;;;;;;;;7.03;71.20;101055.34;5087883;28;20422;-91
2022/03/17 08:06:37;;;;;;;;;;;;;;;6.99;70.71;101064.91;5088903;28;19916;-90
2022/03/17 08:09:03;;;;;;;;;;;;;;;7.11;70.26;101059.03;5089178;28;19924;-92
2022/03/17 08:11:28;;;;;;;;;;;;;;;7.03;68.55;101065.84;5088146;28;20405;-94
2022/03/17 08:13:54;;;;;;;;;;;;;;;7.20;69.20;101066.19;5088228;28;20023;-91
2022/03/17 08:16:19;;;;;;;;;;;;;;;7.12;68.39;101064.31;5087578;28;20344;-91
2022/03/17 08:18:44;;;;;;;;;;;;;;;7.34;68.26;101070.88;5089905;28;19977;-92
2022/03/17 08:21:12;;;;;;;;;;;;;;;7.49;68.27;101069.41;5089670;28;20428;-93
2022/03/17 08:23:37;;;;;;;;;;;;;;;7.45;67.35;101072.84;5102356;28;20539;-90
2022/03/17 08:26:02;;;;;;;;;;;;;;;7.75;67.27;101079.53;5107757;28;19936;-89
2022/03/17 08:28:28;;;;;;;;;;;;;;;7.92;64.65;101074.59;5108987;28;19916;-91
2022/03/17 08:30:53;;;;;;;;;;;;;;;7.97;66.11;101079.06;5104420;28;19935;-89
2022/03/17 08:33:19;;;;;;;;;;;;;;;8.04;65.68;101088.81;5089310;28;20586;-92
2022/03/17 08:35:45;;;;;;;;;;;;;;;7.95;66.25;101082.53;5086990;28;19959;-90
2022/03/17 08:38:10;;;;;;;;;;;;;;;8.14;65.88;101083.72;5088760;28;20015;-91
2022/03/17 08:40:38;;;;;;;;;;;;;;;8.05;66.88;101087.09;5086537;28;20030;-90
2022/03/17 08:43:04;;;;;;;;;;;;;;;8.30;66.22;101087.50;5086834;28;19949;-90
2022/03/17 08:50:57;;;;;;;;;;;;;;;8.36;65.10;101096.38;5088820;28;19987;-91
2022/03/17 08:53:22;;;;;;;;;;;;;;;8.31;65.18;101099.78;5087873;28;19920;-89
2022/03/17 08:55:49;;;;;;;;;;;;;;;8.13;64.90;101087.22;5090002;28;20675;-90
2022/03/17 08:58:15;;;;;;;;;;;;;;;8.10;66.45;101092.44;5088067;28;20381;-89
2022/03/17 09:00:41;;;;;;;;;;;;;;;8.20;66.58;101095.25;5088196;28;19979;-91
2022/03/17 09:03:07;;;;;;;;;;;;;;;8.13;66.86;101092.47;5086444;28;20381;-89
2022/03/17 09:05:35;;;;;;;;;;;;;;;8.00;65.56;101091.34;5088747;28;19963;-91
2022/03/17 09:08:01;;;;;;;;;;;;;;;8.10;65.72;101098.56;5086150;28;19920;-92
2022/03/17 09:10:27;;;;;;;;;;;;;;;8.06;65.48;101094.09;5086472;28;19973;-89
2022/03/17 09:12:57;;;;;;;;;;;;;;;8.03;65.96;101094.03;5087388;28;19930;-89
2022/03/17 09:15:27;;;;;;;;;;;;;;;8.05;65.29;101100.22;5104184;28;19916;-92
2022/03/17 09:17:53;;;;;;;;;;;;;;;7.86;65.53;101099.00;5087018;28;19916;-91
2022/03/17 09:20:18;;;;;;;;;;;;;;;7.95;65.53;101096.53;5087001;28;19931;-92
2022/03/17 09:22:44;;;;;;;;;;;;;;;8.12;65.62;101103.84;5086466;28;19986;-93
2022/03/17 09:25:10;;;;;;;;;;;;;;;8.35;65.80;101099.84;5087326;28;19924;-92
2022/03/17 09:27:36;;;;;;;;;;;;;;;8.46;66.14;101102.69;5087573;28;19927;-92
2022/03/17 09:30:01;;;;;;;;;;;;;;;8.45;66.38;101098.31;5088176;28;19966;-92
2022/03/17 09:32:27;;;;;;;;;;;;;;;8.40;66.41;101107.81;5087269;28;19920;-92
2022/03/17 09:34:52;;;;;;;;;;;;;;;8.39;65.45;101111.31;5086584;28;20378;-89
2022/03/17 09:37:17;;;;;;;;;;;;;;;8.47;64.93;101114.13;5085682;28;19920;-90
2022/03/17 09:39:46;;;;;;;;;;;;;;;8.56;64.26;101109.88;5087417;28;19924;-92
2022/03/17 09:42:14;;;;;;;;;;;;;;;8.41;65.02;101110.47;5087409;28;20686;-91
2022/03/17 09:44:41;;;;;;;;;;;;;;;8.63;63.91;101108.22;5086683;28;20138;-93
2022/03/17 09:47:10;;;;;;;;;;;;;;;8.23;62.83;101111.06;5087504;28;20413;-92
2022/03/17 09:49:37;;;;;;;;;;;;;;;8.14;65.00;101115.25;5086637;28;19920;-92
2022/03/17 09:52:10;;;;;;;;;;;;;;;8.41;65.45;101115.72;5086790;28;19920;-92
2022/03/17 09:54:35;;;;;;;;;;;;;;;8.53;62.76;101119.47;5088691;28;19990;-88
2022/03/17 09:57:01;;;;;;;;;;;;;;;8.50;63.50;101119.44;5088247;28;20487;-90
2022/03/17 09:59:26;;;;;;;;;;;;;;;8.53;61.75;101122.09;5086807;28;19927;-90
2022/03/17 10:01:52;;;;;;;;;;;;;;;8.76;62.20;101117.22;5086266;28;19926;-91
2022/03/17 10:04:18;;;;;;;;;;;;;;;8.54;63.25;101116.88;5087903;28;19917;-90
2022/03/17 10:06:43;;;;;;;;;;;;;;;8.57;62.08;101122.19;5085919;28;19927;-88
2022/03/17 10:09:10;;;;;;;;;;;;;;;8.35;62.04;101094.59;5087713;28;19927;-92
2022/03/17 10:11:39;;;;;;;;;;;;;;;8.59;62.98;101109.06;5087652;28;19920;-91
2022/03/17 10:14:08;;;;;;;;;;;;;;;8.67;63.19;101115.31;5087945;28;19927;-90
2022/03/17 10:16:33;;;;;;;;;;;;;;;8.85;61.99;101116.44;5087868;28;19916;-90
2022/03/17 10:19:03;;;;;;;;;;;;;;;8.86;62.29;101118.22;5086195;28;19916;-92
2022/03/17 10:21:29;;;;;;;;;;;;;;;9.01;62.48;101118.44;5086390;28;19948;-89
2022/03/17 10:24:02;;;;;;;;;;;;;;;8.88;62.04;101119.13;5085121;28;19975;-92
2022/03/17 10:26:39;;;;;;;;;;;;;;;9.00;62.10;101116.66;5086732;28;20019;-89
2022/03/17 10:29:11;;;;;;;;;;;;;;;9.09;63.94;101123.81;5087335;28;20011;-91
2022/03/17 10:32:00;;;;;;;;;;;;;;;8.91;63.00;101127.06;5087165;28;20694;-91
2022/03/17 10:34:28;;;;;;;;;;;;;;;8.74;62.30;101098.75;5084501;28;19920;-90
2022/03/17 10:37:12;;;;;;;;;;;;;;;9.30;60.62;101126.72;5090121;28;19927;-90
2022/03/17 10:39:39;;;;;;;;;;;;;;;9.56;60.51;101125.28;5089301;28;20799;-90
2022/03/17 10:42:30;;;;;;;;;;;;;;;9.50;59.07;101129.63;5090922;28;19971;-91
2022/03/17 10:44:58;;;;;;;;;;;;;;;9.36;58.50;101131.22;5086878;28;19920;-89
2022/03/17 10:47:23;;;;;;;;;;;;;;;9.50;58.04;101134.88;5091320;28;19920;-90
2022/03/17 10:50:00;;;;;;;;;;;;;;;9.75;58.12;101135.19;5090288;28;19923;-89
2022/03/17 10:52:27;;;;;;;;;;;;;;;9.74;58.21;101136.03;5087161;28;19924;-89
2022/03/17 10:54:56;;;;;;;;;;;;;;;10.01;57.46;101132.81;5088829;28;19920;-90
2022/03/17 10:57:24;;;;;;;;;;;;;;;9.81;57.31;101135.25;5090092;28;19920;-91
2022/03/17 10:59:53;;;;;;;;;;;;;;;9.77;58.00;101136.06;5089765;28;19920;-92
2022/03/17 11:02:21;;;;;;;;;;;;;;;9.64;58.16;101131.53;5088932;28;20030;-90
2022/03/17 11:04:47;;;;;;;;;;;;;;;9.97;58.65;101131.00;5090668;28;19924;-92
2022/03/17 11:07:14;;;;;;;;;;;;;;;10.00;58.73;101123.13;5088068;28;19924;-91
2022/03/17 11:09:40;;;;;;;;;;;;;;;10.11;56.81;101117.09;5088786;28;19916;-89
2022/03/17 11:12:09;;;;;;;;;;;;;;;9.89;58.79;101114.25;5087597;28;20027;-89
2022/03/17 11:14:53;;;;;;;;;;;;;;;9.75;58.55;101116.72;5084990;28;19999;-87
2022/03/17 11:17:26;;;;;;;;;;;;;;;9.69;57.05;101111.41;5089514;28;20428;-88
2022/03/17 11:19:53;;;;;;;;;;;;;;;9.87;59.22;101116.00;5122497;27;20014;-88
2022/03/17 11:22:22;;;;;;;;;;;;;;;9.90;57.90;101117.75;5089490;28;19920;-88
2022/03/17 11:25:08;;;;;;;;;;;;;;;9.93;57.63;101121.31;5087261;28;19924;-88
2022/03/17 11:27:43;;;;;;;;;;;;;;;9.85;57.10;101112.44;5096201;28;19920;-89
2022/03/17 11:30:11;;;;;;;;;;;;;;;9.30;58.64;101104.78;5069409;28;19916;-88
2022/03/17 11:32:37;;;;;;;;;;;;;;;9.40;60.58;101111.06;5068359;28;19920;-88
2022/03/17 11:35:10;;;;;;;;;;;;;;;9.57;58.15;101114.75;5069522;28;19926;-88
2022/03/17 11:37:38;;;;;;;;;;;;;;;9.82;58.34;101109.75;5069239;28;19927;-87
2022/03/17 11:40:10;;;;;;;;;;;;;;;9.81;59.18;101103.63;5067892;28;20402;-88
2022/03/17 11:42:44;;;;;;;;;;;;;;;9.46;58.69;101111.13;5086154;28;20003;-88
2022/03/17 11:45:15;;;;;;;;;;;;;;;9.50;58.04;101107.66;5089606;28;19924;-89
2022/03/17 11:47:43;;;;;;;;;;;;;;;9.38;58.14;101104.88;5088019;28;20322;-89
2022/03/17 11:50:25;;;;;;;;;;;;;;;9.35;58.25;101103.09;5089093;28;19959;-88
2022/03/17 11:53:00;;;;;;;;;;;;;;;9.08;58.41;101095.72;5089194;28;19916;-89
2022/03/17 11:55:37;;;;;;;;;;;;;;;9.09;60.21;101097.47;5122147;27;19923;-89
2022/03/17 11:58:21;;;;;;;;;;;;;;;9.01;57.91;101101.78;5087660;28;19928;-87
2022/03/17 12:00:47;;;;;;;;;;;;;;;9.13;58.60;101097.53;5089453;28;19967;-89
2022/03/17 12:03:13;;;;;;;;;;;;;;;9.02;58.34;101088.63;5121657;27;19927;-89
2022/03/17 12:05:39;;;;;;;;;;;;;;;9.36;58.99;101096.97;5088562;28;19924;-89
2022/03/17 12:08:05;;;;;;;;;;;;;;;9.50;57.74;101095.38;5087698;28;19926;-89
2022/03/17 12:10:49;;;;;;;;;;;;;;;9.37;58.27;101096.09;5086888;28;20378;-89
2022/03/17 12:13:24;;;;;;;;;;;;;;;9.57;57.55;101092.81;5088912;28;19916;-89
2022/03/17 12:15:56;;;;;;;;;;;;;;;9.62;57.29;101096.38;5087297;28;20714;-89
2022/03/17 12:18:21;;;;;;;;;;;;;;;9.43;56.39;101103.19;5089089;28;20821;-92
2022/03/17 12:20:47;;;;;;;;;;;;;;;9.20;57.82;101098.50;5087528;28;19915;-90
2022/03/17 12:23:31;;;;;;;;;;;;;;;8.87;57.94;101105.09;5087210;28;19956;-90
2022/03/17 12:26:03;;;;;;;;;;;;;;;8.55;62.29;101123.88;5088527;28;19946;-89
2022/03/17 12:28:30;;;;;;;;;;;;;;;7.23;68.28;101126.63;5088975;28;20007;-90
2022/03/17 12:30:55;;;;;;;;;;;;;;;6.63;72.08;101127.03;5088123;28;19961;-90
2022/03/17 12:33:20;;;;;;;;;;;;;;;6.14;76.63;101131.06;5088390;28;20442;-88
2022/03/17 12:35:48;;;;;;;;;;;;;;;5.84;76.18;101139.84;5089392;28;20339;-89
2022/03/17 12:38:18;;;;;;;;;;;;;;;5.49;76.91;101136.25;5088698;28;19920;-89
2022/03/17 12:40:45;;;;;;;;;;;;;;;5.41;78.55;101137.72;5086805;28;20667;-87
2022/03/17 12:43:15;;;;;;;;;;;;;;;5.46;78.44;101137.03;5088607;28;19928;-90
2022/03/17 12:45:41;;;;;;;;;;;;;;;5.52;79.34;101141.56;5084811;28;19916;-88
2022/03/17 12:48:10;;;;;;;;;;;;;;;5.51;79.64;101143.28;5086914;28;20766;-90
2022/03/17 12:50:35;;;;;;;;;;;;;;;5.43;81.02;101144.78;5087547;28;19935;-88
2022/03/17 12:53:00;;;;;;;;;;;;;;;5.45;81.36;101160.53;5085880;28;20547;-87
2022/03/17 12:55:27;;;;;;;;;;;;;;;5.47;82.18;101161.47;5086233;28;20324;-89
2022/03/17 12:57:52;;;;;;;;;;;;;;;5.49;82.35;101159.81;5087745;28;20003;-87
2022/03/17 13:00:23;;;;;;;;;;;;;;;5.50;82.13;101166.78;5086433;28;20038;-87